sensor_id;sensor_type;location;lat;lon;timestamp;temperature;humidity
326;DHT22;150;52.352;14.058;2022-08-19T00:00:37;22.60;60.30
326;DHT22;150;52.352;14.058;2022-08-19T00:03:39;22.60;60.60
326;DHT22;150;52.352;14.058;2022-08-19T00:06:30;22.60;61.30
326;DHT22;150;52.352;14.058;2022-08-19T00:09:27;22.60;62.00
326;DHT22;150;52.352;14.058;2022-08-19T00:12:08;22.60;60.80
326;DHT22;150;52.352;14.058;2022-08-19T00:14:44;22.50;61.20
326;DHT22;150;52.352;14.058;2022-08-19T00:17:27;22.60;62.50
326;DHT22;150;52.352;14.058;2022-08-19T00:20:50;22.60;61.50
326;DHT22;150;52.352;14.058;2022-08-19T00:24:13;22.60;61.20
326;DHT22;150;52.352;14.058;2022-08-19T00:26:50;22.40;60.50
326;DHT22;150;52.352;14.058;2022-08-19T00:29:19;22.30;62.00
326;DHT22;150;52.352;14.058;2022-08-19T00:32:31;22.30;62.80
326;DHT22;150;52.352;14.058;2022-08-19T00:35:08;22.40;63.50
326;DHT22;150;52.352;14.058;2022-08-19T00:37:49;22.40;63.30
326;DHT22;150;52.352;14.058;2022-08-19T00:40:42;22.40;62.80
326;DHT22;150;52.352;14.058;2022-08-19T00:43:12;22.40;62.30
326;DHT22;150;52.352;14.058;2022-08-19T00:45:50;22.40;62.60
326;DHT22;150;52.352;14.058;2022-08-19T00:49:01;22.50;62.30
326;DHT22;150;52.352;14.058;2022-08-19T00:51:59;22.60;60.90
326;DHT22;150;52.352;14.058;2022-08-19T00:54:38;22.70;61.60
326;DHT22;150;52.352;14.058;2022-08-19T00:57:36;22.80;61.60
326;DHT22;150;52.352;14.058;2022-08-19T01:00:47;22.90;59.90
326;DHT22;150;52.352;14.058;2022-08-19T01:03:18;23.00;57.30
326;DHT22;150;52.352;14.058;2022-08-19T01:09:08;23.20;57.60
326;DHT22;150;52.352;14.058;2022-08-19T01:12:04;23.40;57.20
326;DHT22;150;52.352;14.058;2022-08-19T01:14:41;23.50;55.00
326;DHT22;150;52.352;14.058;2022-08-19T01:17:26;23.60;55.10
326;DHT22;150;52.352;14.058;2022-08-19T01:23:22;23.80;54.60
326;DHT22;150;52.352;14.058;2022-08-19T01:27:25;23.90;54.70
326;DHT22;150;52.352;14.058;2022-08-19T01:29:47;24.00;54.80
326;DHT22;150;52.352;14.058;2022-08-19T01:32:25;24.10;55.20
326;DHT22;150;52.352;14.058;2022-08-19T01:34:52;24.20;54.60
326;DHT22;150;52.352;14.058;2022-08-19T01:37:50;24.10;54.40
326;DHT22;150;52.352;14.058;2022-08-19T01:40:29;24.20;54.60
326;DHT22;150;52.352;14.058;2022-08-19T01:43:05;24.20;54.60
326;DHT22;150;52.352;14.058;2022-08-19T01:45:41;24.20;55.00
326;DHT22;150;52.352;14.058;2022-08-19T01:48:08;24.10;56.20
326;DHT22;150;52.352;14.058;2022-08-19T01:51:04;24.00;55.40
326;DHT22;150;52.352;14.058;2022-08-19T01:56:41;23.80;55.80
326;DHT22;150;52.352;14.058;2022-08-19T01:59:21;23.70;55.30
326;DHT22;150;52.352;14.058;2022-08-19T02:01:58;23.70;56.20
326;DHT22;150;52.352;14.058;2022-08-19T02:07:35;23.50;56.40
326;DHT22;150;52.352;14.058;2022-08-19T02:10:38;23.40;56.30
326;DHT22;150;52.352;14.058;2022-08-19T02:13:18;23.30;57.40
326;DHT22;150;52.352;14.058;2022-08-19T02:16:07;23.20;57.50
326;DHT22;150;52.352;14.058;2022-08-19T02:18:34;23.10;58.10
326;DHT22;150;52.352;14.058;2022-08-19T02:21:01;23.00;58.70
326;DHT22;150;52.352;14.058;2022-08-19T02:23:38;22.80;59.50
326;DHT22;150;52.352;14.058;2022-08-19T02:26:12;22.80;60.50
326;DHT22;150;52.352;14.058;2022-08-19T02:28:49;22.70;60.50
326;DHT22;150;52.352;14.058;2022-08-19T02:31:19;22.60;61.00
326;DHT22;150;52.352;14.058;2022-08-19T02:34:11;22.70;60.50
326;DHT22;150;52.352;14.058;2022-08-19T02:36:55;22.80;61.30
326;DHT22;150;52.352;14.058;2022-08-19T02:40:02;22.80;60.00
326;DHT22;150;52.352;14.058;2022-08-19T02:42:29;22.80;60.00
326;DHT22;150;52.352;14.058;2022-08-19T02:45:21;22.80;59.50
326;DHT22;150;52.352;14.058;2022-08-19T02:47:48;22.90;59.90
326;DHT22;150;52.352;14.058;2022-08-19T02:50:14;22.90;60.00
326;DHT22;150;52.352;14.058;2022-08-19T02:52:41;23.00;59.10
326;DHT22;150;52.352;14.058;2022-08-19T02:55:08;22.90;59.50
326;DHT22;150;52.352;14.058;2022-08-19T02:57:35;23.00;59.60
326;DHT22;150;52.352;14.058;2022-08-19T03:00:04;23.10;59.50
326;DHT22;150;52.352;14.058;2022-08-19T03:02:32;23.20;60.00
326;DHT22;150;52.352;14.058;2022-08-19T03:04:59;23.30;58.90
326;DHT22;150;52.352;14.058;2022-08-19T03:07:27;23.40;58.60
326;DHT22;150;52.352;14.058;2022-08-19T03:09:53;23.40;57.10
326;DHT22;150;52.352;14.058;2022-08-19T03:12:20;23.40;57.30
326;DHT22;150;52.352;14.058;2022-08-19T03:14:46;23.50;57.90
326;DHT22;150;52.352;14.058;2022-08-19T03:17:13;23.50;58.00
326;DHT22;150;52.352;14.058;2022-08-19T03:19:41;23.50;57.90
326;DHT22;150;52.352;14.058;2022-08-19T03:22:10;23.50;57.60
326;DHT22;150;52.352;14.058;2022-08-19T03:24:37;23.50;57.40
326;DHT22;150;52.352;14.058;2022-08-19T03:27:04;23.50;56.90
326;DHT22;150;52.352;14.058;2022-08-19T03:29:31;23.50;57.00
326;DHT22;150;52.352;14.058;2022-08-19T03:31:59;23.50;56.90
326;DHT22;150;52.352;14.058;2022-08-19T03:34:29;23.30;57.10
326;DHT22;150;52.352;14.058;2022-08-19T03:36:59;23.30;57.50
326;DHT22;150;52.352;14.058;2022-08-19T03:39:26;23.20;57.80
326;DHT22;150;52.352;14.058;2022-08-19T03:41:54;23.10;58.30
326;DHT22;150;52.352;14.058;2022-08-19T03:44:26;23.00;58.90
326;DHT22;150;52.352;14.058;2022-08-19T03:46:54;23.00;58.70
326;DHT22;150;52.352;14.058;2022-08-19T03:49:22;23.00;58.70
326;DHT22;150;52.352;14.058;2022-08-19T03:51:50;23.10;58.10
326;DHT22;150;52.352;14.058;2022-08-19T03:54:19;22.90;58.50
326;DHT22;150;52.352;14.058;2022-08-19T03:56:49;22.80;59.60
326;DHT22;150;52.352;14.058;2022-08-19T03:59:19;22.90;60.10
326;DHT22;150;52.352;14.058;2022-08-19T04:01:48;22.90;59.80
326;DHT22;150;52.352;14.058;2022-08-19T04:04:14;22.80;60.00
326;DHT22;150;52.352;14.058;2022-08-19T04:06:41;22.80;59.50
326;DHT22;150;52.352;14.058;2022-08-19T04:09:10;22.80;59.90
326;DHT22;150;52.352;14.058;2022-08-19T04:11:40;22.80;61.00
326;DHT22;150;52.352;14.058;2022-08-19T04:14:09;22.80;59.80
326;DHT22;150;52.352;14.058;2022-08-19T04:16:36;22.80;59.90
326;DHT22;150;52.352;14.058;2022-08-19T04:19:04;22.80;60.00
326;DHT22;150;52.352;14.058;2022-08-19T04:21:31;22.80;60.40
326;DHT22;150;52.352;14.058;2022-08-19T04:23:58;22.70;59.90
326;DHT22;150;52.352;14.058;2022-08-19T04:26:28;22.70;59.70
326;DHT22;150;52.352;14.058;2022-08-19T04:28:59;22.70;60.10
326;DHT22;150;52.352;14.058;2022-08-19T04:31:29;22.80;60.60
326;DHT22;150;52.352;14.058;2022-08-19T04:33:57;22.90;60.40
326;DHT22;150;52.352;14.058;2022-08-19T04:36:26;23.00;60.10
326;DHT22;150;52.352;14.058;2022-08-19T04:38:55;23.10;59.70
326;DHT22;150;52.352;14.058;2022-08-19T04:41:22;23.20;59.70
326;DHT22;150;52.352;14.058;2022-08-19T04:44:09;23.10;58.70
326;DHT22;150;52.352;14.058;2022-08-19T04:46:36;23.20;58.30
326;DHT22;150;52.352;14.058;2022-08-19T04:49:05;23.30;57.90
326;DHT22;150;52.352;14.058;2022-08-19T04:51:32;23.30;57.90
326;DHT22;150;52.352;14.058;2022-08-19T04:54:01;23.30;58.10
326;DHT22;150;52.352;14.058;2022-08-19T04:56:28;23.40;57.80
326;DHT22;150;52.352;14.058;2022-08-19T04:58:55;23.40;57.40
326;DHT22;150;52.352;14.058;2022-08-19T05:01:27;23.40;56.90
326;DHT22;150;52.352;14.058;2022-08-19T05:03:55;23.40;56.60
326;DHT22;150;52.352;14.058;2022-08-19T05:06:30;23.50;56.70
326;DHT22;150;52.352;14.058;2022-08-19T05:08:59;23.30;56.60
326;DHT22;150;52.352;14.058;2022-08-19T05:11:28;23.40;56.80
326;DHT22;150;52.352;14.058;2022-08-19T05:13:56;23.40;57.20
326;DHT22;150;52.352;14.058;2022-08-19T05:16:25;23.50;56.80
326;DHT22;150;52.352;14.058;2022-08-19T05:18:52;23.50;56.00
326;DHT22;150;52.352;14.058;2022-08-19T05:21:38;23.60;56.20
326;DHT22;150;52.352;14.058;2022-08-19T05:24:23;23.50;55.00
326;DHT22;150;52.352;14.058;2022-08-19T05:26:53;23.50;56.00
326;DHT22;150;52.352;14.058;2022-08-19T05:29:23;23.50;56.30
326;DHT22;150;52.352;14.058;2022-08-19T05:31:55;23.60;56.20
326;DHT22;150;52.352;14.058;2022-08-19T05:34:23;23.60;56.10
326;DHT22;150;52.352;14.058;2022-08-19T05:36:55;23.60;55.50
326;DHT22;150;52.352;14.058;2022-08-19T05:39:24;23.60;55.40
326;DHT22;150;52.352;14.058;2022-08-19T05:41:53;23.60;55.10
326;DHT22;150;52.352;14.058;2022-08-19T05:44:20;23.60;55.10
326;DHT22;150;52.352;14.058;2022-08-19T05:46:47;23.60;55.10
326;DHT22;150;52.352;14.058;2022-08-19T05:49:18;23.50;55.10
326;DHT22;150;52.352;14.058;2022-08-19T05:51:45;23.60;55.20
326;DHT22;150;52.352;14.058;2022-08-19T05:54:12;23.60;56.20
326;DHT22;150;52.352;14.058;2022-08-19T05:56:39;23.50;55.00
326;DHT22;150;52.352;14.058;2022-08-19T05:59:10;23.40;56.00
326;DHT22;150;52.352;14.058;2022-08-19T06:01:39;23.30;55.90
326;DHT22;150;52.352;14.058;2022-08-19T06:04:08;23.20;57.20
326;DHT22;150;52.352;14.058;2022-08-19T06:06:36;23.20;57.90
326;DHT22;150;52.352;14.058;2022-08-19T06:09:07;23.10;57.80
326;DHT22;150;52.352;14.058;2022-08-19T06:11:38;23.10;58.50
326;DHT22;150;52.352;14.058;2022-08-19T06:14:08;23.10;58.60
326;DHT22;150;52.352;14.058;2022-08-19T06:16:35;23.10;58.80
326;DHT22;150;52.352;14.058;2022-08-19T06:19:06;23.10;58.70
326;DHT22;150;52.352;14.058;2022-08-19T06:21:34;23.10;59.20
326;DHT22;150;52.352;14.058;2022-08-19T06:24:05;23.10;58.70
326;DHT22;150;52.352;14.058;2022-08-19T06:26:33;23.20;59.30
326;DHT22;150;52.352;14.058;2022-08-19T06:29:00;23.20;58.90
326;DHT22;150;52.352;14.058;2022-08-19T06:31:28;23.20;58.50
326;DHT22;150;52.352;14.058;2022-08-19T06:33:56;23.10;59.10
326;DHT22;150;52.352;14.058;2022-08-19T06:36:25;23.00;59.50
326;DHT22;150;52.352;14.058;2022-08-19T06:38:57;23.00;60.00
326;DHT22;150;52.352;14.058;2022-08-19T06:41:26;23.00;60.40
326;DHT22;150;52.352;14.058;2022-08-19T06:43:54;23.00;59.70
326;DHT22;150;52.352;14.058;2022-08-19T06:46:21;23.00;59.80
326;DHT22;150;52.352;14.058;2022-08-19T06:48:49;23.10;60.20
326;DHT22;150;52.352;14.058;2022-08-19T06:51:18;23.10;59.50
326;DHT22;150;52.352;14.058;2022-08-19T06:53:46;23.20;59.50
326;DHT22;150;52.352;14.058;2022-08-19T06:56:13;23.20;58.90
326;DHT22;150;52.352;14.058;2022-08-19T06:58:41;23.20;59.20
326;DHT22;150;52.352;14.058;2022-08-19T07:01:08;23.20;59.30
326;DHT22;150;52.352;14.058;2022-08-19T07:03:37;23.30;58.70
326;DHT22;150;52.352;14.058;2022-08-19T07:06:05;23.30;58.90
326;DHT22;150;52.352;14.058;2022-08-19T07:08:33;23.30;59.10
326;DHT22;150;52.352;14.058;2022-08-19T07:11:01;23.40;59.40
326;DHT22;150;52.352;14.058;2022-08-19T07:13:28;23.50;57.80
326;DHT22;150;52.352;14.058;2022-08-19T07:15:57;23.50;57.70
326;DHT22;150;52.352;14.058;2022-08-19T07:18:24;23.50;58.40
326;DHT22;150;52.352;14.058;2022-08-19T07:20:50;23.60;57.40
326;DHT22;150;52.352;14.058;2022-08-19T07:23:17;23.60;56.50
326;DHT22;150;52.352;14.058;2022-08-19T07:25:44;23.70;57.20
326;DHT22;150;52.352;14.058;2022-08-19T07:28:11;23.70;56.40
326;DHT22;150;52.352;14.058;2022-08-19T07:30:38;23.80;56.20
326;DHT22;150;52.352;14.058;2022-08-19T07:33:07;23.80;56.90
326;DHT22;150;52.352;14.058;2022-08-19T07:35:34;23.80;55.30
326;DHT22;150;52.352;14.058;2022-08-19T07:38:00;23.90;55.30
326;DHT22;150;52.352;14.058;2022-08-19T07:40:29;24.00;56.00
326;DHT22;150;52.352;14.058;2022-08-19T07:42:56;24.10;55.50
326;DHT22;150;52.352;14.058;2022-08-19T07:45:22;24.10;55.20
326;DHT22;150;52.352;14.058;2022-08-19T07:47:49;24.10;55.50
326;DHT22;150;52.352;14.058;2022-08-19T07:50:19;24.10;54.60
326;DHT22;150;52.352;14.058;2022-08-19T07:52:46;24.10;55.20
326;DHT22;150;52.352;14.058;2022-08-19T07:55:12;24.10;55.60
326;DHT22;150;52.352;14.058;2022-08-19T07:57:39;24.10;55.10
326;DHT22;150;52.352;14.058;2022-08-19T08:00:07;24.10;55.10
326;DHT22;150;52.352;14.058;2022-08-19T08:02:34;24.00;55.10
326;DHT22;150;52.352;14.058;2022-08-19T08:05:00;24.00;55.40
326;DHT22;150;52.352;14.058;2022-08-19T08:07:46;24.00;55.40
326;DHT22;150;52.352;14.058;2022-08-19T08:10:30;24.00;55.40
326;DHT22;150;52.352;14.058;2022-08-19T08:12:57;24.10;55.50
326;DHT22;150;52.352;14.058;2022-08-19T08:15:24;24.10;55.20
326;DHT22;150;52.352;14.058;2022-08-19T08:17:51;24.10;55.40
326;DHT22;150;52.352;14.058;2022-08-19T08:20:18;24.10;55.10
326;DHT22;150;52.352;14.058;2022-08-19T08:22:47;24.10;54.10
326;DHT22;150;52.352;14.058;2022-08-19T08:25:32;24.20;54.50
326;DHT22;150;52.352;14.058;2022-08-19T08:28:00;24.20;54.90
326;DHT22;150;52.352;14.058;2022-08-19T08:30:29;24.40;55.30
326;DHT22;150;52.352;14.058;2022-08-19T08:32:58;24.50;53.40
326;DHT22;150;52.352;14.058;2022-08-19T08:35:25;24.50;52.70
326;DHT22;150;52.352;14.058;2022-08-19T08:37:54;24.50;52.80
326;DHT22;150;52.352;14.058;2022-08-19T08:40:26;24.70;53.50
326;DHT22;150;52.352;14.058;2022-08-19T08:45:43;24.90;53.20
326;DHT22;150;52.352;14.058;2022-08-19T08:48:24;25.00;52.50
326;DHT22;150;52.352;14.058;2022-08-19T08:50:53;25.10;52.40
326;DHT22;150;52.352;14.058;2022-08-19T08:53:22;25.20;52.70
326;DHT22;150;52.352;14.058;2022-08-19T08:55:50;25.20;52.70
326;DHT22;150;52.352;14.058;2022-08-19T08:58:20;25.20;52.70
326;DHT22;150;52.352;14.058;2022-08-19T09:00:50;25.30;52.70
326;DHT22;150;52.352;14.058;2022-08-19T09:03:19;25.30;53.10
326;DHT22;150;52.352;14.058;2022-08-19T09:05:55;25.30;53.00
326;DHT22;150;52.352;14.058;2022-08-19T09:08:33;25.30;52.60
326;DHT22;150;52.352;14.058;2022-08-19T09:11:06;25.30;52.50
326;DHT22;150;52.352;14.058;2022-08-19T09:13:42;25.40;52.70
326;DHT22;150;52.352;14.058;2022-08-19T09:16:13;25.40;51.30
326;DHT22;150;52.352;14.058;2022-08-19T09:18:43;25.30;51.80
326;DHT22;150;52.352;14.058;2022-08-19T09:21:11;25.30;52.60
326;DHT22;150;52.352;14.058;2022-08-19T09:23:40;25.30;52.60
326;DHT22;150;52.352;14.058;2022-08-19T09:26:10;25.50;53.40
326;DHT22;150;52.352;14.058;2022-08-19T09:28:38;25.70;52.80
326;DHT22;150;52.352;14.058;2022-08-19T09:31:09;25.80;52.80
326;DHT22;150;52.352;14.058;2022-08-19T09:33:35;25.90;52.60
326;DHT22;150;52.352;14.058;2022-08-19T09:36:05;26.10;51.80
326;DHT22;150;52.352;14.058;2022-08-19T09:38:32;26.30;50.60
326;DHT22;150;52.352;14.058;2022-08-19T09:41:03;26.40;50.70
326;DHT22;150;52.352;14.058;2022-08-19T09:43:31;26.40;47.70
326;DHT22;150;52.352;14.058;2022-08-19T09:45:58;26.30;47.10
326;DHT22;150;52.352;14.058;2022-08-19T09:48:25;26.10;47.90
326;DHT22;150;52.352;14.058;2022-08-19T09:50:52;26.10;48.00
326;DHT22;150;52.352;14.058;2022-08-19T09:53:19;26.10;47.80
326;DHT22;150;52.352;14.058;2022-08-19T09:55:48;26.00;47.60
326;DHT22;150;52.352;14.058;2022-08-19T09:58:16;25.90;48.40
326;DHT22;150;52.352;14.058;2022-08-19T10:00:43;25.90;48.60
326;DHT22;150;52.352;14.058;2022-08-19T10:03:11;25.90;49.00
326;DHT22;150;52.352;14.058;2022-08-19T10:05:38;26.00;49.10
326;DHT22;150;52.352;14.058;2022-08-19T10:08:18;26.00;48.90
326;DHT22;150;52.352;14.058;2022-08-19T10:10:46;26.10;48.40
326;DHT22;150;52.352;14.058;2022-08-19T10:13:16;26.20;48.40
326;DHT22;150;52.352;14.058;2022-08-19T10:15:44;26.10;47.60
326;DHT22;150;52.352;14.058;2022-08-19T10:18:11;26.20;47.60
326;DHT22;150;52.352;14.058;2022-08-19T10:20:37;26.30;47.60
326;DHT22;150;52.352;14.058;2022-08-19T10:23:04;26.30;46.60
326;DHT22;150;52.352;14.058;2022-08-19T10:25:32;26.30;46.60
326;DHT22;150;52.352;14.058;2022-08-19T10:27:59;26.40;46.70
326;DHT22;150;52.352;14.058;2022-08-19T10:30:27;26.50;46.70
326;DHT22;150;52.352;14.058;2022-08-19T10:32:54;26.40;47.40
326;DHT22;150;52.352;14.058;2022-08-19T10:35:21;26.40;46.70
326;DHT22;150;52.352;14.058;2022-08-19T10:37:47;26.40;46.70
326;DHT22;150;52.352;14.058;2022-08-19T10:40:14;26.50;46.70
326;DHT22;150;52.352;14.058;2022-08-19T10:42:41;26.50;46.40
326;DHT22;150;52.352;14.058;2022-08-19T10:45:09;26.40;46.70
326;DHT22;150;52.352;14.058;2022-08-19T10:47:37;26.50;46.70
326;DHT22;150;52.352;14.058;2022-08-19T10:50:05;26.50;44.90
326;DHT22;150;52.352;14.058;2022-08-19T10:52:50;26.50;46.20
326;DHT22;150;52.352;14.058;2022-08-19T10:55:18;26.70;46.00
326;DHT22;150;52.352;14.058;2022-08-19T10:58:03;26.80;45.70
326;DHT22;150;52.352;14.058;2022-08-19T11:00:30;26.70;43.50
326;DHT22;150;52.352;14.058;2022-08-19T11:02:59;26.70;43.60
326;DHT22;150;52.352;14.058;2022-08-19T11:05:25;26.70;42.70
326;DHT22;150;52.352;14.058;2022-08-19T11:07:52;26.70;44.10
326;DHT22;150;52.352;14.058;2022-08-19T11:10:19;26.70;43.90
326;DHT22;150;52.352;14.058;2022-08-19T11:12:46;26.60;44.20
326;DHT22;150;52.352;14.058;2022-08-19T11:15:13;26.60;44.70
326;DHT22;150;52.352;14.058;2022-08-19T11:17:40;26.50;44.70
326;DHT22;150;52.352;14.058;2022-08-19T11:20:11;26.40;44.60
326;DHT22;150;52.352;14.058;2022-08-19T11:22:38;26.40;45.10
326;DHT22;150;52.352;14.058;2022-08-19T11:25:06;26.40;45.10
326;DHT22;150;52.352;14.058;2022-08-19T11:27:32;26.40;45.60
326;DHT22;150;52.352;14.058;2022-08-19T11:29:59;26.50;45.40
326;DHT22;150;52.352;14.058;2022-08-19T11:32:28;26.50;45.90
326;DHT22;150;52.352;14.058;2022-08-19T11:34:55;26.70;46.10
326;DHT22;150;52.352;14.058;2022-08-19T11:37:23;26.70;45.40
326;DHT22;150;52.352;14.058;2022-08-19T11:39:49;26.80;44.80
326;DHT22;150;52.352;14.058;2022-08-19T11:42:17;27.00;43.30
326;DHT22;150;52.352;14.058;2022-08-19T11:45:02;27.30;43.30
326;DHT22;150;52.352;14.058;2022-08-19T11:47:29;27.50;43.20
326;DHT22;150;52.352;14.058;2022-08-19T11:49:56;27.60;42.80
326;DHT22;150;52.352;14.058;2022-08-19T11:52:24;27.60;41.30
326;DHT22;150;52.352;14.058;2022-08-19T11:54:50;27.70;41.60
326;DHT22;150;52.352;14.058;2022-08-19T11:57:17;27.50;40.10
326;DHT22;150;52.352;14.058;2022-08-19T11:59:48;27.50;39.90
326;DHT22;150;52.352;14.058;2022-08-19T12:02:15;27.50;41.40
326;DHT22;150;52.352;14.058;2022-08-19T12:04:42;27.60;41.30
326;DHT22;150;52.352;14.058;2022-08-19T12:07:08;27.50;39.60
326;DHT22;150;52.352;14.058;2022-08-19T12:09:37;27.50;40.80
326;DHT22;150;52.352;14.058;2022-08-19T12:12:04;27.60;41.10
326;DHT22;150;52.352;14.058;2022-08-19T12:14:31;27.60;39.80
326;DHT22;150;52.352;14.058;2022-08-19T12:16:58;27.70;40.40
326;DHT22;150;52.352;14.058;2022-08-19T12:19:25;27.70;39.20
326;DHT22;150;52.352;14.058;2022-08-19T12:21:52;27.70;39.70
326;DHT22;150;52.352;14.058;2022-08-19T12:24:20;27.80;39.80
326;DHT22;150;52.352;14.058;2022-08-19T12:26:50;27.60;38.80
326;DHT22;150;52.352;14.058;2022-08-19T12:29:16;27.70;38.90
326;DHT22;150;52.352;14.058;2022-08-19T12:31:43;27.60;39.00
326;DHT22;150;52.352;14.058;2022-08-19T12:34:09;27.60;39.10
326;DHT22;150;52.352;14.058;2022-08-19T12:36:36;27.60;39.20
326;DHT22;150;52.352;14.058;2022-08-19T12:39:03;27.40;39.70
326;DHT22;150;52.352;14.058;2022-08-19T12:41:31;27.40;39.90
326;DHT22;150;52.352;14.058;2022-08-19T12:43:58;27.50;40.40
326;DHT22;150;52.352;14.058;2022-08-19T12:46:26;27.50;40.40
326;DHT22;150;52.352;14.058;2022-08-19T12:48:52;27.40;39.40
326;DHT22;150;52.352;14.058;2022-08-19T12:51:19;27.40;40.10
326;DHT22;150;52.352;14.058;2022-08-19T12:53:47;27.30;41.00
326;DHT22;150;52.352;14.058;2022-08-19T12:56:14;27.30;41.50
326;DHT22;150;52.352;14.058;2022-08-19T12:58:42;27.30;41.30
326;DHT22;150;52.352;14.058;2022-08-19T13:01:12;27.00;41.40
326;DHT22;150;52.352;14.058;2022-08-19T13:03:39;26.80;43.30
326;DHT22;150;52.352;14.058;2022-08-19T13:06:07;26.60;44.00
326;DHT22;150;52.352;14.058;2022-08-19T13:08:34;26.60;44.70
326;DHT22;150;52.352;14.058;2022-08-19T13:11:09;26.60;45.20
326;DHT22;150;52.352;14.058;2022-08-19T13:13:37;26.40;44.80
326;DHT22;150;52.352;14.058;2022-08-19T13:16:06;26.50;46.00
326;DHT22;150;52.352;14.058;2022-08-19T13:18:34;26.50;46.70
326;DHT22;150;52.352;14.058;2022-08-19T13:21:02;26.60;45.80
326;DHT22;150;52.352;14.058;2022-08-19T13:23:29;26.60;45.00
326;DHT22;150;52.352;14.058;2022-08-19T13:25:57;26.50;45.50
326;DHT22;150;52.352;14.058;2022-08-19T13:28:24;26.40;45.00
326;DHT22;150;52.352;14.058;2022-08-19T13:30:51;26.30;46.60
326;DHT22;150;52.352;14.058;2022-08-19T13:33:38;26.60;46.80
326;DHT22;150;52.352;14.058;2022-08-19T13:36:06;26.80;45.80
326;DHT22;150;52.352;14.058;2022-08-19T13:38:33;26.80;44.60
326;DHT22;150;52.352;14.058;2022-08-19T13:41:04;26.80;44.90
326;DHT22;150;52.352;14.058;2022-08-19T13:43:31;26.90;44.30
326;DHT22;150;52.352;14.058;2022-08-19T13:45:58;26.90;42.80
326;DHT22;150;52.352;14.058;2022-08-19T13:48:26;26.90;44.20
326;DHT22;150;52.352;14.058;2022-08-19T13:50:54;27.10;44.10
326;DHT22;150;52.352;14.058;2022-08-19T13:53:21;27.20;43.80
326;DHT22;150;52.352;14.058;2022-08-19T13:55:48;27.20;43.10
326;DHT22;150;52.352;14.058;2022-08-19T13:58:16;27.10;42.30
326;DHT22;150;52.352;14.058;2022-08-19T14:00:45;27.00;43.10
326;DHT22;150;52.352;14.058;2022-08-19T14:03:12;26.90;42.70
326;DHT22;150;52.352;14.058;2022-08-19T14:05:38;27.00;42.40
326;DHT22;150;52.352;14.058;2022-08-19T14:08:06;26.90;42.20
326;DHT22;150;52.352;14.058;2022-08-19T14:10:34;26.90;42.50
326;DHT22;150;52.352;14.058;2022-08-19T14:13:03;26.90;43.20
326;DHT22;150;52.352;14.058;2022-08-19T14:15:30;26.70;42.70
326;DHT22;150;52.352;14.058;2022-08-19T14:17:57;26.60;43.70
326;DHT22;150;52.352;14.058;2022-08-19T14:20:24;26.50;44.80
326;DHT22;150;52.352;14.058;2022-08-19T14:22:50;26.30;44.10
326;DHT22;150;52.352;14.058;2022-08-19T14:25:22;26.30;44.80
326;DHT22;150;52.352;14.058;2022-08-19T14:27:49;26.30;44.40
326;DHT22;150;52.352;14.058;2022-08-19T14:30:18;26.30;44.90
326;DHT22;150;52.352;14.058;2022-08-19T14:32:45;26.30;44.80
326;DHT22;150;52.352;14.058;2022-08-19T14:35:13;26.30;45.50
326;DHT22;150;52.352;14.058;2022-08-19T14:37:41;26.10;45.60
326;DHT22;150;52.352;14.058;2022-08-19T14:40:10;26.30;46.00
326;DHT22;150;52.352;14.058;2022-08-19T14:42:39;26.30;45.70
326;DHT22;150;52.352;14.058;2022-08-19T14:45:07;26.30;45.70
326;DHT22;150;52.352;14.058;2022-08-19T14:47:34;26.30;44.90
326;DHT22;150;52.352;14.058;2022-08-19T14:50:01;26.40;45.30
326;DHT22;150;52.352;14.058;2022-08-19T14:52:28;26.40;45.10
326;DHT22;150;52.352;14.058;2022-08-19T14:54:55;26.50;45.20
326;DHT22;150;52.352;14.058;2022-08-19T14:57:21;26.50;44.50
326;DHT22;150;52.352;14.058;2022-08-19T14:59:49;26.40;44.70
326;DHT22;150;52.352;14.058;2022-08-19T15:02:16;26.30;46.00
326;DHT22;150;52.352;14.058;2022-08-19T15:04:43;26.40;45.50
326;DHT22;150;52.352;14.058;2022-08-19T15:07:10;26.40;44.90
326;DHT22;150;52.352;14.058;2022-08-19T15:09:37;26.30;44.90
326;DHT22;150;52.352;14.058;2022-08-19T15:12:04;26.30;45.60
326;DHT22;150;52.352;14.058;2022-08-19T15:14:30;26.40;45.40
326;DHT22;150;52.352;14.058;2022-08-19T15:17:02;26.40;44.90
326;DHT22;150;52.352;14.058;2022-08-19T15:19:30;26.60;45.30
326;DHT22;150;52.352;14.058;2022-08-19T15:21:57;26.60;45.00
326;DHT22;150;52.352;14.058;2022-08-19T15:24:24;26.70;44.80
326;DHT22;150;52.352;14.058;2022-08-19T15:26:53;26.70;43.50
326;DHT22;150;52.352;14.058;2022-08-19T15:29:21;26.50;43.10
326;DHT22;150;52.352;14.058;2022-08-19T15:31:49;26.40;43.80
326;DHT22;150;52.352;14.058;2022-08-19T15:34:18;26.30;43.70
326;DHT22;150;52.352;14.058;2022-08-19T15:36:56;26.20;44.40
326;DHT22;150;52.352;14.058;2022-08-19T15:39:34;26.10;44.70
326;DHT22;150;52.352;14.058;2022-08-19T15:42:09;26.20;45.00
326;DHT22;150;52.352;14.058;2022-08-19T15:44:36;26.20;43.90
326;DHT22;150;52.352;14.058;2022-08-19T15:47:03;26.20;44.00
326;DHT22;150;52.352;14.058;2022-08-19T15:49:31;26.20;44.90
326;DHT22;150;52.352;14.058;2022-08-19T15:51:58;26.10;44.60
326;DHT22;150;52.352;14.058;2022-08-19T15:54:26;26.30;44.70
326;DHT22;150;52.352;14.058;2022-08-19T15:56:55;26.30;44.20
326;DHT22;150;52.352;14.058;2022-08-19T15:59:39;26.30;43.90
326;DHT22;150;52.352;14.058;2022-08-19T16:02:33;26.30;43.70
326;DHT22;150;52.352;14.058;2022-08-19T16:05:31;26.30;43.80
326;DHT22;150;52.352;14.058;2022-08-19T16:08:16;26.30;44.60
326;DHT22;150;52.352;14.058;2022-08-19T16:10:43;26.20;44.70
326;DHT22;150;52.352;14.058;2022-08-19T16:13:14;26.20;44.40
326;DHT22;150;52.352;14.058;2022-08-19T16:15:40;26.20;45.20
326;DHT22;150;52.352;14.058;2022-08-19T16:18:11;26.10;45.30
326;DHT22;150;52.352;14.058;2022-08-19T16:20:40;26.20;45.30
326;DHT22;150;52.352;14.058;2022-08-19T16:23:06;26.20;45.20
326;DHT22;150;52.352;14.058;2022-08-19T16:25:34;26.10;45.40
326;DHT22;150;52.352;14.058;2022-08-19T16:28:01;26.20;45.20
326;DHT22;150;52.352;14.058;2022-08-19T16:30:36;26.30;45.20
326;DHT22;150;52.352;14.058;2022-08-19T16:33:03;26.20;44.60
326;DHT22;150;52.352;14.058;2022-08-19T16:35:30;26.30;45.30
326;DHT22;150;52.352;14.058;2022-08-19T16:38:01;26.10;44.70
326;DHT22;150;52.352;14.058;2022-08-19T16:40:36;26.00;46.40
326;DHT22;150;52.352;14.058;2022-08-19T16:43:27;26.00;45.90
326;DHT22;150;52.352;14.058;2022-08-19T16:45:58;26.00;45.90
326;DHT22;150;52.352;14.058;2022-08-19T16:48:27;26.00;45.60
326;DHT22;150;52.352;14.058;2022-08-19T16:50:57;26.00;45.40
326;DHT22;150;52.352;14.058;2022-08-19T16:53:27;26.00;45.70
326;DHT22;150;52.352;14.058;2022-08-19T16:55:54;26.00;45.80
326;DHT22;150;52.352;14.058;2022-08-19T16:58:22;25.90;45.10